Ashley, North Dakota
Current Conditions -  °F | °C
As of 11:35 PM on Wednesday 26 Nov 2014 (Local Time) from K7L2 Reporting Station
Clear Clear  
Wind Chill: -26°   Ceiling: Unl
Heat Index: -11°   Visibility: 10mi
Dew Point: -17°   Wind: 7mph
Humidity: 77%   Direction: 100°E
Pressure: 30.46"   Gusts: NA
Location:  46.03°N, 99.37°W
Report Text: K7L2 270535Z AUTO 10006KT 10SM CLR M24/M27 A3046 RMK AO2
Loading
Personal Weather Stations






























Interactive Weather Map New forecast layout! Learn more

10-Day Weather Forecast

Advertisements
Track Severe Weather on mobile